createdAt,value
2022-11-20T00:00:54.897Z,8.43
2022-11-20T00:03:21.712Z,8.15
2022-11-20T00:05:48.419Z,8.05
2022-11-20T00:08:15.214Z,8.20
2022-11-20T00:10:41.966Z,8.20
2022-11-20T00:13:09.078Z,7.65
2022-11-20T00:15:35.777Z,7.90
2022-11-20T00:18:02.524Z,7.18
2022-11-20T00:20:29.262Z,6.82
2022-11-20T00:22:55.968Z,6.53
2022-11-20T00:25:22.658Z,7.35
2022-11-20T00:27:49.336Z,7.47
2022-11-20T00:30:16.033Z,7.35
2022-11-20T00:32:42.722Z,6.35
2022-11-20T00:35:09.554Z,7.33
2022-11-20T00:37:36.199Z,7.45
2022-11-20T00:40:02.877Z,7.85
2022-11-20T00:42:29.753Z,8.23
2022-11-20T00:44:56.483Z,7.90
2022-11-20T00:47:23.206Z,8.50
2022-11-20T00:49:49.876Z,8.25
2022-11-20T00:52:16.526Z,8.95
2022-11-20T00:54:43.170Z,8.85
2022-11-20T00:57:09.867Z,8.57
2022-11-20T00:59:36.526Z,10.10
2022-11-20T01:02:03.229Z,10.85
2022-11-20T01:04:29.960Z,10.18
2022-11-20T01:06:56.685Z,9.77
2022-11-20T01:09:23.648Z,9.73
2022-11-20T01:11:50.586Z,9.03
2022-11-20T01:14:19.885Z,9.15
2022-11-20T01:16:49.345Z,9.52
2022-11-20T01:19:22.319Z,9.52
2022-11-20T01:21:51.496Z,7.72
2022-11-20T01:24:20.159Z,8.30
2022-11-20T01:26:49.941Z,8.93
2022-11-20T01:29:20.053Z,8.63
2022-11-20T01:31:47.135Z,10.52
2022-11-20T01:34:15.920Z,9.02
2022-11-20T01:36:44.024Z,8.97
2022-11-20T01:39:15.140Z,8.50
2022-11-20T01:42:04.510Z,8.82
2022-11-20T01:44:55.932Z,9.10
2022-11-20T01:47:40.883Z,8.40
2022-11-20T01:50:14.579Z,7.77
2022-11-20T01:52:45.297Z,8.57
2022-11-20T01:55:20.050Z,8.55
2022-11-20T01:57:48.107Z,8.45
2022-11-20T02:00:16.577Z,8.30
2022-11-20T02:02:46.488Z,9.03
2022-11-20T02:05:33.906Z,8.30
2022-11-20T02:08:01.160Z,7.95
2022-11-20T02:10:28.279Z,8.02
2022-11-20T02:13:14.101Z,8.60
2022-11-20T02:15:41.411Z,7.50
2022-11-20T02:18:08.987Z,7.65
2022-11-20T02:20:35.749Z,7.90
2022-11-20T02:23:10.518Z,7.43
2022-11-20T02:25:37.986Z,8.30
2022-11-20T02:28:05.332Z,7.30
2022-11-20T02:30:32.051Z,7.93
2022-11-20T02:32:59.497Z,8.98
2022-11-20T02:35:26.122Z,8.98
2022-11-20T02:37:55.711Z,8.88
2022-11-20T02:40:22.896Z,8.73
2022-11-20T02:42:53.188Z,9.25
2022-11-20T02:45:19.979Z,9.13
2022-11-20T02:47:47.000Z,9.00
2022-11-20T02:50:13.850Z,9.63
2022-11-20T02:52:40.540Z,10.13
2022-11-20T02:55:07.746Z,11.18
2022-11-20T02:57:34.495Z,10.88
2022-11-20T03:00:01.215Z,9.27
2022-11-20T03:02:31.291Z,9.43
2022-11-20T03:04:58.104Z,9.40
2022-11-20T03:07:25.102Z,10.88
2022-11-20T03:09:51.814Z,8.85
2022-11-20T03:12:18.469Z,10.90
2022-11-20T03:14:48.895Z,9.13
2022-11-20T03:17:18.404Z,8.40
2022-11-20T03:19:45.061Z,10.18
2022-11-20T03:22:11.770Z,9.73
2022-11-20T03:24:38.407Z,11.32
2022-11-20T03:27:05.229Z,11.02
2022-11-20T03:29:31.948Z,10.50
2022-11-20T03:31:58.616Z,11.85
2022-11-20T03:34:25.290Z,11.50
2022-11-20T03:36:51.998Z,12.30
2022-11-20T03:39:18.820Z,9.77
2022-11-20T03:41:45.829Z,11.77
2022-11-20T03:44:12.811Z,11.10
2022-11-20T03:46:39.708Z,11.95
2022-11-20T03:49:06.475Z,10.43
2022-11-20T03:51:35.005Z,10.73
2022-11-20T03:54:06.968Z,10.83
2022-11-20T03:56:36.386Z,10.88
2022-11-20T03:59:03.792Z,11.07
2022-11-20T04:01:32.976Z,11.10
2022-11-20T04:04:00.046Z,10.38
2022-11-20T04:06:31.810Z,9.73
2022-11-20T04:08:59.662Z,9.80
2022-11-20T04:11:31.550Z,9.75
2022-11-20T04:14:12.622Z,9.52
2022-11-20T04:16:39.346Z,9.38
2022-11-20T04:19:07.854Z,7.43
2022-11-20T04:21:34.621Z,9.32
2022-11-20T04:24:01.467Z,9.20
2022-11-20T04:26:29.223Z,9.05
2022-11-20T04:28:56.674Z,8.98
2022-11-20T04:31:25.967Z,9.07
2022-11-20T04:33:52.800Z,9.30
2022-11-20T04:36:21.529Z,9.38
2022-11-20T04:38:56.571Z,8.32
2022-11-20T04:41:26.230Z,8.70
2022-11-20T04:44:02.786Z,7.80
2022-11-20T04:46:30.665Z,8.20
2022-11-20T04:48:57.415Z,8.70
2022-11-20T04:51:24.290Z,8.23
2022-11-20T04:53:50.948Z,9.45
2022-11-20T04:56:17.826Z,9.30
2022-11-20T04:58:44.470Z,8.57
2022-11-20T05:01:13.171Z,10.10
2022-11-20T05:03:42.544Z,9.18
2022-11-20T05:06:10.954Z,9.25
2022-11-20T05:08:37.782Z,10.10
2022-11-20T05:11:07.034Z,9.38
2022-11-20T05:13:33.759Z,9.93
2022-11-20T05:16:08.013Z,9.85
2022-11-20T05:18:35.953Z,9.10
2022-11-20T05:21:02.915Z,9.53
2022-11-20T05:23:31.663Z,9.68
2022-11-20T05:25:59.602Z,9.80
2022-11-20T05:28:28.525Z,9.95
2022-11-20T05:30:55.348Z,8.82
2022-11-20T05:33:22.552Z,9.80
2022-11-20T05:35:49.577Z,9.10
2022-11-20T05:38:16.506Z,9.50
2022-11-20T05:40:43.174Z,9.23
2022-11-20T05:43:09.802Z,10.02
2022-11-20T05:45:36.534Z,10.37
2022-11-20T05:48:03.364Z,9.35
2022-11-20T05:50:30.059Z,9.25
2022-11-20T05:53:00.454Z,9.98
2022-11-20T05:55:27.890Z,9.68
2022-11-20T05:57:55.867Z,10.13
2022-11-20T06:00:23.098Z,11.55
2022-11-20T06:02:50.013Z,11.38
2022-11-20T06:05:16.916Z,10.63
2022-11-20T06:07:43.807Z,11.05
2022-11-20T06:10:10.885Z,10.27
2022-11-20T06:12:37.553Z,10.00
2022-11-20T06:15:05.611Z,10.73
2022-11-20T06:17:32.290Z,10.07
2022-11-20T06:19:59.016Z,9.82
2022-11-20T06:22:25.619Z,9.47
2022-11-20T06:24:52.303Z,10.52
2022-11-20T06:27:18.996Z,10.70
2022-11-20T06:29:45.759Z,11.60
2022-11-20T06:32:12.525Z,11.43
2022-11-20T06:34:39.259Z,10.10
2022-11-20T06:37:05.950Z,8.18
2022-11-20T06:39:32.614Z,9.75
2022-11-20T06:41:59.534Z,8.80
2022-11-20T06:44:26.647Z,8.65
2022-11-20T06:46:53.361Z,9.27
2022-11-20T06:49:20.436Z,8.70
2022-11-20T06:51:47.363Z,8.70
2022-11-20T06:54:14.112Z,8.70
2022-11-20T06:56:40.810Z,9.00
2022-11-20T06:59:08.161Z,8.37
2022-11-20T07:01:35.922Z,8.88
2022-11-20T07:04:03.974Z,8.88
2022-11-20T07:06:30.878Z,8.57
2022-11-20T07:08:57.975Z,9.25
2022-11-20T07:11:25.827Z,9.37
2022-11-20T07:13:52.491Z,9.52
2022-11-20T07:16:19.526Z,8.82
2022-11-20T07:18:50.438Z,8.07
2022-11-20T07:21:17.781Z,8.48
2022-11-20T07:23:44.453Z,8.40
2022-11-20T07:26:11.875Z,8.07
2022-11-20T07:28:38.909Z,9.40
2022-11-20T07:31:07.694Z,9.27
2022-11-20T07:33:34.513Z,8.63
2022-11-20T07:36:01.246Z,8.30
2022-11-20T07:38:28.383Z,9.38
2022-11-20T07:40:56.697Z,10.27
2022-11-20T07:43:23.298Z,9.20
2022-11-20T07:45:49.995Z,9.10
2022-11-20T07:48:16.793Z,7.97
2022-11-20T07:50:43.506Z,9.00
2022-11-20T07:53:10.130Z,8.75
2022-11-20T07:55:37.119Z,9.57
2022-11-20T07:58:03.902Z,9.32
2022-11-20T08:00:30.719Z,8.33
2022-11-20T08:02:57.396Z,8.75
2022-11-20T08:05:24.312Z,8.90
2022-11-20T08:07:51.053Z,8.75
2022-11-20T08:10:18.052Z,10.65
2022-11-20T08:13:07.654Z,10.63
2022-11-20T08:15:35.026Z,11.70
2022-11-20T08:21:03.251Z,12.77
2022-11-20T08:23:29.944Z,13.05
2022-11-20T08:25:56.645Z,10.97
2022-11-20T08:28:23.286Z,12.73
2022-11-20T08:30:50.992Z,14.55
2022-11-20T08:33:18.620Z,13.43
2022-11-20T08:35:45.383Z,13.07
2022-11-20T08:38:12.253Z,12.40
2022-11-20T08:40:38.970Z,12.27
2022-11-20T08:43:05.591Z,12.00
2022-11-20T08:45:34.621Z,9.40
2022-11-20T08:48:03.172Z,8.82
2022-11-20T08:50:33.213Z,7.10
2022-11-20T08:53:06.576Z,7.72
2022-11-20T08:55:33.882Z,7.70
2022-11-20T08:58:05.194Z,8.85
2022-11-20T09:00:31.985Z,8.38
2022-11-20T09:02:59.594Z,8.10
2022-11-20T09:05:26.264Z,8.55
2022-11-20T09:07:52.918Z,9.23
2022-11-20T09:10:24.512Z,8.75
2022-11-20T09:12:52.845Z,8.63
2022-11-20T09:15:20.033Z,9.97
2022-11-20T09:18:01.770Z,9.23
2022-11-20T09:20:29.963Z,9.05
2022-11-20T09:22:57.777Z,8.18
2022-11-20T09:25:24.511Z,8.70
2022-11-20T09:27:58.519Z,7.37
2022-11-20T09:30:25.774Z,7.47
2022-11-20T09:32:53.594Z,7.68
2022-11-20T09:35:20.405Z,9.00
2022-11-20T09:37:47.095Z,8.95
2022-11-20T09:40:30.498Z,8.67
2022-11-20T09:43:21.105Z,9.80
2022-11-20T09:45:56.767Z,9.50
2022-11-20T09:48:32.969Z,9.80
2022-11-20T09:51:15.070Z,9.63
2022-11-20T09:54:08.204Z,9.93
2022-11-20T09:56:36.075Z,9.88
2022-11-20T09:59:05.597Z,9.68
2022-11-20T10:01:35.311Z,9.85
2022-11-20T10:04:03.281Z,10.85
2022-11-20T10:06:35.238Z,10.17
2022-11-20T10:09:08.438Z,9.85
2022-11-20T10:11:53.095Z,9.15
2022-11-20T10:14:28.069Z,9.00
2022-11-20T10:17:18.609Z,10.38
2022-11-20T10:20:00.826Z,9.97
2022-11-20T10:22:33.577Z,9.88
2022-11-20T10:25:05.852Z,10.32
2022-11-20T10:27:55.642Z,11.15
2022-11-20T10:30:25.845Z,10.45
2022-11-20T10:33:00.454Z,9.40
2022-11-20T10:35:39.885Z,10.60
2022-11-20T10:38:14.249Z,11.43
2022-11-20T10:40:44.447Z,10.95
2022-11-20T10:43:17.714Z,10.48
2022-11-20T10:45:50.603Z,11.73
2022-11-20T10:48:22.461Z,10.93
2022-11-20T10:50:58.527Z,11.05
2022-11-20T10:53:37.436Z,10.43
2022-11-20T10:56:13.247Z,10.65
2022-11-20T10:59:01.218Z,10.93
2022-11-20T11:01:28.204Z,11.13
2022-11-20T11:03:56.403Z,11.38
2022-11-20T11:06:44.158Z,10.57
2022-11-20T11:09:17.456Z,10.75
2022-11-20T11:11:44.210Z,11.63
2022-11-20T11:14:13.325Z,10.80
2022-11-20T11:16:58.085Z,11.38
2022-11-20T11:19:25.794Z,11.05
2022-11-20T11:21:58.447Z,12.00
2022-11-20T11:24:45.775Z,11.03
2022-11-20T11:27:17.171Z,12.32
2022-11-20T11:29:45.309Z,12.25
2022-11-20T11:32:22.730Z,12.32
2022-11-20T11:35:03.471Z,12.77
2022-11-20T11:37:38.798Z,12.00
2022-11-20T11:43:02.127Z,14.07
2022-11-20T11:45:29.088Z,15.23
2022-11-20T11:47:58.639Z,16.02
2022-11-20T11:50:30.559Z,15.57
2022-11-20T11:53:18.677Z,14.20
2022-11-20T11:55:49.722Z,14.45
2022-11-20T11:58:37.571Z,13.68
2022-11-20T12:01:21.979Z,12.85
2022-11-20T12:04:03.460Z,13.77
2022-11-20T12:06:32.505Z,14.15
2022-11-20T12:09:09.790Z,13.02
2022-11-20T12:11:42.511Z,12.50
2022-11-20T12:14:40.565Z,12.52
2022-11-20T12:17:09.827Z,13.27
2022-11-20T12:19:36.608Z,13.07
2022-11-20T12:22:08.229Z,13.88
2022-11-20T12:24:44.037Z,12.63
2022-11-20T12:27:23.893Z,12.88
2022-11-20T12:30:17.455Z,12.80
2022-11-20T12:33:02.446Z,13.10
2022-11-20T12:35:57.884Z,13.38
2022-11-20T12:39:05.786Z,13.93
2022-11-20T12:42:03.301Z,14.32
2022-11-20T12:45:06.927Z,14.17
2022-11-20T12:47:48.854Z,13.70
2022-11-20T12:50:30.631Z,12.95
2022-11-20T12:53:23.422Z,12.90
2022-11-20T12:55:58.298Z,14.35
2022-11-20T12:58:44.152Z,13.03
2022-11-20T13:01:44.529Z,13.38
2022-11-20T13:04:29.972Z,14.73
2022-11-20T13:06:57.751Z,13.95
2022-11-20T13:09:25.071Z,13.85
2022-11-20T13:12:07.193Z,12.77
2022-11-20T13:14:41.601Z,13.40
2022-11-20T13:17:15.907Z,12.40
2022-11-20T13:19:42.691Z,11.48
2022-11-20T13:22:10.100Z,12.13
2022-11-20T13:24:36.758Z,11.47
2022-11-20T13:27:09.336Z,11.18
2022-11-20T13:29:37.792Z,11.90
2022-11-20T13:32:15.158Z,11.90
2022-11-20T13:34:53.545Z,12.73
2022-11-20T13:37:35.871Z,13.10
2022-11-20T13:40:23.319Z,13.10
2022-11-20T13:43:03.626Z,13.32
2022-11-20T13:45:32.148Z,13.38
2022-11-20T13:48:05.263Z,12.38
2022-11-20T13:50:37.824Z,11.77
2022-11-20T13:53:35.394Z,12.45
2022-11-20T13:56:03.985Z,13.18
2022-11-20T13:58:32.987Z,12.65
2022-11-20T14:01:08.564Z,12.35
2022-11-20T14:04:04.565Z,11.70
2022-11-20T14:06:30.513Z,11.90
2022-11-20T14:08:57.763Z,12.45
2022-11-20T14:11:29.066Z,12.80
2022-11-20T14:14:00.210Z,12.75
2022-11-20T14:16:28.943Z,13.23
2022-11-20T14:18:56.322Z,13.20
2022-11-20T14:21:28.967Z,14.10
2022-11-20T14:24:07.038Z,13.13
2022-11-20T14:26:34.607Z,13.52
2022-11-20T14:29:01.396Z,12.33
2022-11-20T14:31:28.853Z,14.02
2022-11-20T14:33:56.142Z,12.38
2022-11-20T14:36:24.550Z,12.60
2022-11-20T14:38:52.412Z,13.18
2022-11-20T14:41:22.072Z,13.57
2022-11-20T14:43:57.422Z,14.15
2022-11-20T14:46:24.591Z,13.65
2022-11-20T14:48:53.630Z,13.82
2022-11-20T14:51:34.857Z,13.23
2022-11-20T14:54:19.462Z,14.40
2022-11-20T14:56:56.451Z,14.40
2022-11-20T14:59:27.741Z,14.77
2022-11-20T15:02:03.807Z,16.10
2022-11-20T15:04:30.535Z,13.93
2022-11-20T15:06:59.154Z,15.50
2022-11-20T15:09:25.961Z,15.10
2022-11-20T15:11:58.287Z,16.67
2022-11-20T15:14:26.386Z,15.07
2022-11-20T15:16:53.382Z,16.17
2022-11-20T15:19:25.263Z,16.40
2022-11-20T15:21:52.067Z,15.23
2022-11-20T15:24:19.308Z,16.40
2022-11-20T15:26:46.182Z,16.73
2022-11-20T15:29:14.460Z,16.98
2022-11-20T15:31:42.540Z,15.43
2022-11-20T15:34:12.332Z,14.95
2022-11-20T15:36:40.526Z,14.82
2022-11-20T15:39:10.244Z,14.52
2022-11-20T15:41:37.305Z,15.18
2022-11-20T15:44:05.555Z,14.37
2022-11-20T15:46:39.258Z,13.95
2022-11-20T15:49:06.780Z,13.77
2022-11-20T15:51:38.655Z,14.70
2022-11-20T15:54:18.458Z,18.33
2022-11-20T15:56:45.205Z,16.13
2022-11-20T15:59:11.912Z,16.40
2022-11-20T16:01:38.804Z,16.98
2022-11-20T16:04:08.849Z,15.93
2022-11-20T16:06:35.519Z,16.40
2022-11-20T16:09:02.164Z,17.67
2022-11-20T16:11:28.955Z,19.08
2022-11-20T16:14:14.136Z,18.15
2022-11-20T16:16:41.754Z,18.73
2022-11-20T16:19:14.851Z,18.35
2022-11-20T16:21:42.584Z,18.30
2022-11-20T16:24:11.908Z,18.25
2022-11-20T16:26:38.612Z,18.13
2022-11-20T16:29:06.194Z,17.88
2022-11-20T16:31:33.141Z,18.33
2022-11-20T16:34:03.901Z,17.97
2022-11-20T16:36:33.818Z,19.50
2022-11-20T16:39:02.301Z,19.13
2022-11-20T16:41:31.979Z,18.70
2022-11-20T16:44:00.707Z,19.27
2022-11-20T16:46:30.338Z,18.90
2022-11-20T16:48:58.995Z,17.17
2022-11-20T16:51:26.742Z,17.83
2022-11-20T16:53:55.944Z,17.90
2022-11-20T16:56:25.370Z,16.80
2022-11-20T16:58:54.617Z,15.43
2022-11-20T17:01:25.532Z,14.95
2022-11-20T17:03:57.358Z,15.18
2022-11-20T17:06:26.430Z,14.27
2022-11-20T17:08:54.483Z,14.98
2022-11-20T17:11:21.202Z,14.20
2022-11-20T17:13:48.490Z,13.13
2022-11-20T17:16:20.146Z,13.40
2022-11-20T17:18:47.200Z,13.30
2022-11-20T17:21:14.134Z,13.40
2022-11-20T17:23:42.567Z,12.47
2022-11-20T17:26:10.410Z,12.32
2022-11-20T17:28:38.184Z,12.25
2022-11-20T17:31:07.293Z,12.68
2022-11-20T17:33:35.574Z,11.30
2022-11-20T17:36:02.412Z,11.37
2022-11-20T17:38:29.180Z,18.35
2022-11-20T17:41:06.222Z,20.10
2022-11-20T17:43:35.887Z,19.15
2022-11-20T17:46:14.769Z,17.13
2022-11-20T17:48:44.075Z,14.50
2022-11-20T17:51:42.070Z,17.60
2022-11-20T17:54:10.515Z,15.63
2022-11-20T17:56:55.898Z,13.80
2022-11-20T17:59:22.926Z,12.88
2022-11-20T18:01:49.910Z,12.80
2022-11-20T18:04:17.287Z,14.15
2022-11-20T18:06:44.215Z,14.05
2022-11-20T18:09:10.997Z,12.98
2022-11-20T18:11:39.581Z,13.52
2022-11-20T18:14:29.171Z,13.70
2022-11-20T18:16:57.748Z,12.27
2022-11-20T18:19:31.966Z,13.65
2022-11-20T18:22:01.353Z,13.50
2022-11-20T18:24:28.387Z,13.32
2022-11-20T18:26:55.271Z,13.07
2022-11-20T18:29:22.371Z,13.93
2022-11-20T18:31:49.592Z,14.32
2022-11-20T18:34:17.801Z,14.10
2022-11-20T18:36:45.331Z,13.18
2022-11-20T18:39:12.846Z,12.07
2022-11-20T18:41:58.827Z,13.40
2022-11-20T18:44:46.496Z,14.38
2022-11-20T18:47:17.889Z,12.68
2022-11-20T18:49:54.678Z,13.15
2022-11-20T18:52:26.710Z,11.30
2022-11-20T18:54:54.422Z,11.75
2022-11-20T18:57:23.672Z,12.57
2022-11-20T18:59:50.769Z,12.02
2022-11-20T19:02:19.040Z,12.23
2022-11-20T19:04:46.059Z,11.80
2022-11-20T19:07:13.244Z,10.57
2022-11-20T19:09:44.022Z,10.73
2022-11-20T19:12:12.468Z,10.48
2022-11-20T19:14:39.265Z,9.63
2022-11-20T19:17:06.961Z,10.00
2022-11-20T19:19:34.813Z,11.45
2022-11-20T19:22:01.491Z,13.48
2022-11-20T19:24:28.753Z,14.13
2022-11-20T19:26:56.212Z,13.75
2022-11-20T19:29:24.127Z,13.53
2022-11-20T19:31:51.075Z,13.57
2022-11-20T19:34:17.817Z,14.70
2022-11-20T19:36:45.163Z,14.13
2022-11-20T19:39:12.397Z,16.42
2022-11-20T19:41:40.066Z,16.67
2022-11-20T19:44:09.712Z,16.65
2022-11-20T19:46:37.692Z,21.15
2022-11-20T19:49:05.580Z,19.58
2022-11-20T19:51:34.770Z,18.92
2022-11-20T19:54:02.468Z,16.97
2022-11-20T19:56:30.287Z,16.15
2022-11-20T19:58:57.683Z,15.85
2022-11-20T20:01:26.687Z,15.90
2022-11-20T20:03:53.963Z,17.98
2022-11-20T20:06:22.932Z,16.63
2022-11-20T20:08:57.771Z,17.35
2022-11-20T20:11:26.330Z,15.68
2022-11-20T20:13:53.591Z,16.25
2022-11-20T20:16:22.255Z,13.00
2022-11-20T20:18:48.950Z,13.13
2022-11-20T20:21:18.480Z,14.07
2022-11-20T20:23:45.282Z,13.52
2022-11-20T20:26:12.394Z,12.75
2022-11-20T20:28:39.257Z,12.60
2022-11-20T20:31:10.791Z,13.77
2022-11-20T20:33:38.673Z,12.65
2022-11-20T20:36:06.417Z,12.90
2022-11-20T20:38:33.593Z,12.68
2022-11-20T20:41:00.545Z,13.70
2022-11-20T20:43:27.444Z,13.23
2022-11-20T20:45:55.109Z,14.70
2022-11-20T20:48:24.035Z,16.58
2022-11-20T20:51:02.663Z,14.82
2022-11-20T20:53:30.775Z,14.68
2022-11-20T20:55:58.888Z,15.23
2022-11-20T20:58:26.268Z,18.85
2022-11-20T21:00:53.352Z,19.50
2022-11-20T21:03:20.328Z,19.25
2022-11-20T21:05:47.217Z,20.27
2022-11-20T21:08:22.766Z,18.17
2022-11-20T21:10:49.923Z,19.02
2022-11-20T21:13:16.888Z,19.27
2022-11-20T21:15:46.554Z,19.55
2022-11-20T21:18:13.217Z,18.80
2022-11-20T21:20:58.702Z,17.87
2022-11-20T21:23:25.467Z,16.13
2022-11-20T21:25:52.272Z,18.15
2022-11-20T21:28:18.956Z,20.25
2022-11-20T21:30:46.047Z,19.95
2022-11-20T21:33:12.966Z,19.80
2022-11-20T21:35:39.782Z,18.65
2022-11-20T21:38:06.422Z,17.23
2022-11-20T21:40:33.139Z,16.45
2022-11-20T21:42:59.784Z,15.02
2022-11-20T21:45:26.471Z,14.70
2022-11-20T21:47:55.119Z,14.55
2022-11-20T21:50:22.282Z,13.35
2022-11-20T21:52:48.978Z,13.57
2022-11-20T21:55:15.722Z,12.98
2022-11-20T21:57:42.378Z,13.37
2022-11-20T22:00:12.352Z,12.90
2022-11-20T22:02:40.363Z,12.93
2022-11-20T22:05:08.027Z,12.07
2022-11-20T22:07:35.292Z,11.60
2022-11-20T22:10:02.123Z,11.43
2022-11-20T22:12:28.873Z,11.15
2022-11-20T22:14:55.622Z,11.43
2022-11-20T22:17:42.339Z,12.52
2022-11-20T22:20:09.901Z,12.48
2022-11-20T22:22:36.683Z,12.70
2022-11-20T22:25:03.473Z,9.88
2022-11-20T22:27:30.182Z,10.88
2022-11-20T22:29:56.843Z,10.68
2022-11-20T22:32:23.553Z,10.10
2022-11-20T22:34:50.234Z,9.57
2022-11-20T22:37:17.029Z,11.55
2022-11-20T22:39:43.665Z,12.02
2022-11-20T22:42:10.312Z,12.23
2022-11-20T22:44:36.946Z,11.07
2022-11-20T22:47:07.456Z,11.13
2022-11-20T22:49:36.840Z,9.98
2022-11-20T22:52:03.572Z,10.98
2022-11-20T22:54:30.256Z,12.82
2022-11-20T22:56:56.926Z,10.43
2022-11-20T22:59:23.589Z,9.43
2022-11-20T23:01:50.370Z,9.88
2022-11-20T23:04:17.057Z,11.73
2022-11-20T23:06:43.803Z,10.52
2022-11-20T23:09:12.719Z,13.00
2022-11-20T23:11:39.442Z,12.53
2022-11-20T23:14:10.817Z,12.05
2022-11-20T23:16:37.612Z,12.77
2022-11-20T23:19:10.647Z,12.65
2022-11-20T23:21:39.119Z,14.25
2022-11-20T23:24:06.341Z,14.40
2022-11-20T23:26:35.155Z,12.80
2022-11-20T23:29:01.948Z,12.30
2022-11-20T23:31:30.571Z,12.02
2022-11-20T23:33:57.620Z,12.48
2022-11-20T23:36:24.390Z,11.70
2022-11-20T23:38:51.118Z,10.20
2022-11-20T23:41:18.083Z,8.52
2022-11-20T23:43:44.753Z,8.75
2022-11-20T23:46:15.209Z,8.63
2022-11-20T23:48:44.814Z,8.23
2022-11-20T23:51:11.504Z,8.85
2022-11-20T23:53:38.206Z,9.23
2022-11-20T23:56:05.917Z,9.00
2022-11-20T23:58:35.069Z,13.45
